Time;durP1;ratioP1;P1;durP2;ratioP2;P2;SDS_P1;SDS_P2;PMS_P1;PMS_P2;Temp;Humidity;BMP_temperature;BMP_pressure;BME280_temperature;BME280_humidity;BME280_pressure;Samples;Min_cycle;Max_cycle;Signal;HPM_P1;HPM_P2
2021/03/04 00:00:10;;;;;;;39.33;28.30;;;11.80;88.90;;;;;;5033883;28;20572;-85
2021/03/04 00:02:37;;;;;;;37.53;28.90;;;11.80;90.00;;;;;;5033740;28;20803;-86
2021/03/04 00:05:07;;;;;;;40.57;28.93;;;11.80;90.00;;;;;;5033936;28;20209;-85
2021/03/04 00:07:37;;;;;;;38.35;26.70;;;11.70;90.20;;;;;;5033952;28;21063;-85
2021/03/04 00:10:12;;;;;;;37.38;26.85;;;11.70;90.40;;;;;;5033695;28;20198;-86
2021/03/04 00:12:40;;;;;;;39.15;28.63;;;11.70;91.00;;;;;;5016197;28;20196;-87
2021/03/04 00:15:08;;;;;;;39.35;27.42;;;11.60;90.70;;;;;;5032673;28;20182;-85
2021/03/04 00:17:34;;;;;;;36.20;27.33;;;11.60;91.10;;;;;;5033881;28;20166;-85
2021/03/04 00:20:00;;;;;;;37.22;29.58;;;11.60;91.30;;;;;;5015918;28;20188;-85
2021/03/04 00:22:26;;;;;;;36.25;26.58;;;11.60;91.50;;;;;;5016055;28;20195;-86
2021/03/04 00:24:52;;;;;;;40.60;30.67;;;11.50;91.60;;;;;;5015634;28;20197;-86
2021/03/04 00:27:18;;;;;;;40.60;31.07;;;11.50;91.90;;;;;;5033415;28;20170;-86
2021/03/04 00:29:43;;;;;;;40.13;28.47;;;11.50;92.10;;;;;;5033368;28;20225;-87
2021/03/04 00:32:09;;;;;;;34.77;28.17;;;11.50;92.40;;;;;;5049120;28;20224;-88
2021/03/04 00:34:35;;;;;;;42.10;29.87;;;11.50;92.70;;;;;;5037407;28;20517;-86
2021/03/04 00:37:01;;;;;;;39.53;33.50;;;11.50;92.90;;;;;;5033985;28;20161;-86
2021/03/04 00:39:27;;;;;;;43.30;32.27;;;11.40;93.10;;;;;;5033238;28;20165;-87
2021/03/04 00:41:52;;;;;;;36.40;29.30;;;11.40;93.30;;;;;;5033566;28;20596;-87
2021/03/04 00:44:18;;;;;;;39.87;30.33;;;11.40;93.60;;;;;;5033430;28;20526;-86
2021/03/04 00:46:44;;;;;;;38.20;31.97;;;11.40;93.70;;;;;;5033111;28;20588;-86
2021/03/04 00:49:10;;;;;;;41.17;31.30;;;11.40;93.90;;;;;;5015331;28;20166;-86
2021/03/04 00:51:35;;;;;;;39.50;31.97;;;11.40;94.10;;;;;;5031791;28;20731;-86
2021/03/04 00:54:01;;;;;;;43.10;32.87;;;11.30;94.30;;;;;;5011949;28;21645;-87
2021/03/04 00:56:27;;;;;;;39.47;29.63;;;11.30;94.50;;;;;;4986992;28;20240;-87
2021/03/04 00:58:53;;;;;;;41.37;32.37;;;11.30;94.60;;;;;;5027950;28;20562;-86
2021/03/04 01:01:19;;;;;;;37.70;30.25;;;11.30;94.80;;;;;;5012960;28;20534;-86
2021/03/04 01:03:45;;;;;;;42.90;30.87;;;11.30;94.90;;;;;;5012760;28;20179;-87
2021/03/04 01:06:15;;;;;;;46.80;31.03;;;11.30;95.20;;;;;;5012236;28;20628;-86
2021/03/04 01:08:41;;;;;;;41.55;33.15;;;11.30;95.50;;;;;;5028006;28;20174;-86
2021/03/04 01:11:07;;;;;;;41.27;30.40;;;11.30;95.60;;;;;;5031530;28;20209;-85
2021/03/04 01:13:33;;;;;;;45.60;32.20;;;11.30;95.80;;;;;;4995780;28;20166;-86
2021/03/04 01:15:58;;;;;;;39.57;32.27;;;11.30;96.00;;;;;;5028097;28;20281;-87
2021/03/04 01:18:24;;;;;;;46.30;35.27;;;11.30;96.60;;;;;;5012765;28;20170;-86
2021/03/04 01:20:50;;;;;;;39.47;32.00;;;11.30;96.40;;;;;;4995015;28;20175;-86
2021/03/04 01:23:15;;;;;;;42.93;32.47;;;11.40;96.70;;;;;;5005356;28;20170;-85
2021/03/04 01:25:41;;;;;;;41.40;31.63;;;11.40;96.90;;;;;;5011999;28;20664;-84
2021/03/04 01:28:07;;;;;;;42.97;31.93;;;11.40;97.00;;;;;;5010878;28;20179;-85
2021/03/04 01:30:33;;;;;;;40.80;31.90;;;11.50;97.20;;;;;;4994995;28;20198;-86
2021/03/04 01:32:59;;;;;;;47.25;34.08;;;11.50;97.40;;;;;;5011322;28;20585;-87
2021/03/04 01:35:26;;;;;;;44.67;32.88;;;11.50;97.50;;;;;;5012430;28;20187;-88
2021/03/04 01:37:54;;;;;;;44.33;33.83;;;11.50;97.50;;;;;;4994920;28;20189;-86
2021/03/04 01:40:23;;;;;;;44.40;33.43;;;11.60;97.70;;;;;;5012615;28;20174;-88
2021/03/04 01:42:50;;;;;;;37.85;31.20;;;11.60;97.90;;;;;;5011614;28;20163;-86
2021/03/04 01:45:17;;;;;;;44.53;33.05;;;11.70;97.90;;;;;;5012794;28;20268;-87
2021/03/04 01:47:47;;;;;;;44.78;32.33;;;11.70;98.10;;;;;;5012541;28;20206;-88
2021/03/04 01:50:14;;;;;;;42.08;33.40;;;11.70;98.40;;;;;;5013848;28;20248;-88
2021/03/04 01:52:40;;;;;;;44.20;34.08;;;11.70;98.30;;;;;;5027133;28;20174;-86
2021/03/04 01:55:06;;;;;;;43.25;34.20;;;11.80;98.60;;;;;;4994688;28;20186;-87
2021/03/04 01:57:33;;;;;;;42.05;34.28;;;11.80;98.60;;;;;;5012159;28;20173;-87
2021/03/04 01:59:59;;;;;;;38.70;32.92;;;11.80;98.70;;;;;;5012119;28;20284;-87
2021/03/04 02:02:26;;;;;;;48.88;34.65;;;11.90;98.80;;;;;;5012101;28;20228;-88
2021/03/04 02:04:53;;;;;;;44.75;35.45;;;11.90;99.00;;;;;;5011927;28;20268;-86
2021/03/04 02:07:53;;;;;;;41.95;34.40;;;11.90;99.20;;;;;;5012298;28;20666;-88
2021/03/04 02:10:21;;;;;;;41.20;33.47;;;11.90;99.90;;;;;;5012038;28;20237;-87
2021/03/04 02:12:52;;;;;;;44.00;34.53;;;12.00;99.50;;;;;;4994398;28;20174;-88
2021/03/04 02:15:27;;;;;;;47.47;34.55;;;12.00;99.60;;;;;;4994596;28;20182;-88
2021/03/04 02:17:56;;;;;;;50.35;36.45;;;12.00;99.90;;;;;;5011229;28;20169;-87
2021/03/04 02:20:31;;;;;;;43.67;34.72;;;12.00;99.90;;;;;;5031341;28;20176;-87
2021/03/04 02:23:25;;;;;;;41.38;34.03;;;12.00;99.90;;;;;;5014806;28;20178;-89
2021/03/04 02:26:02;;;;;;;45.15;34.88;;;12.00;99.90;;;;;;5020015;28;20190;-88
2021/03/04 02:28:29;;;;;;;39.67;32.67;;;12.00;99.90;;;;;;4998232;28;20170;-87
2021/03/04 02:30:59;;;;;;;40.33;32.22;;;12.00;99.90;;;;;;4998352;28;20670;-87
2021/03/04 02:33:29;;;;;;;40.55;34.47;;;12.00;99.90;;;;;;5016008;28;20167;-88
2021/03/04 02:35:55;;;;;;;41.67;34.47;;;11.90;99.90;;;;;;5015829;28;20186;-88
2021/03/04 02:38:22;;;;;;;45.80;34.88;;;11.90;99.90;;;;;;5015452;28;20163;-88
2021/03/04 02:40:52;;;;;;;46.22;35.45;;;11.90;99.90;;;;;;4998055;28;20194;-88
2021/03/04 02:43:20;;;;;;;44.95;36.28;;;11.80;99.90;;;;;;5015480;28;20697;-88
2021/03/04 02:45:50;;;;;;;47.50;36.50;;;11.80;99.90;;;;;;5015715;28;20216;-87
2021/03/04 02:48:22;;;;;;;45.35;35.22;;;11.70;99.90;;;;;;5015195;28;20174;-86
2021/03/04 02:50:52;;;;;;;49.75;37.67;;;11.70;99.90;;;;;;4998496;28;20194;-87
2021/03/04 02:53:24;;;;;;;41.58;34.38;;;11.70;99.90;;;;;;5030547;28;20177;-87
2021/03/04 02:55:52;;;;;;;42.75;35.05;;;11.80;99.90;;;;;;5015448;28;20182;-87
2021/03/04 02:58:19;;;;;;;50.58;37.58;;;11.70;99.90;;;;;;5014928;28;20181;-88
2021/03/04 03:00:46;;;;;;;42.45;34.22;;;11.70;99.90;;;;;;5015388;28;20190;-86
2021/03/04 03:03:14;;;;;;;44.63;37.38;;;11.70;99.90;;;;;;5020158;28;20194;-86
2021/03/04 03:05:43;;;;;;;46.65;37.67;;;11.70;99.90;;;;;;5014013;28;20190;-86
2021/03/04 03:08:14;;;;;;;42.65;35.08;;;11.70;99.90;;;;;;5014911;28;20566;-87
2021/03/04 03:10:40;;;;;;;42.15;34.65;;;11.70;99.90;;;;;;4997729;28;20239;-86
2021/03/04 03:13:06;;;;;;;48.53;35.75;;;11.70;99.90;;;;;;5014923;28;20170;-86
2021/03/04 03:15:32;;;;;;;41.55;34.85;;;11.70;99.90;;;;;;5013510;28;20196;-87
2021/03/04 03:17:58;;;;;;;43.20;34.17;;;11.70;99.90;;;;;;4996964;28;20706;-86
2021/03/04 03:20:24;;;;;;;42.23;34.20;;;11.70;99.90;;;;;;5014761;28;20580;-86
2021/03/04 03:22:52;;;;;;;47.22;36.78;;;11.70;99.90;;;;;;5013684;28;20177;-87
2021/03/04 03:25:18;;;;;;;43.35;36.10;;;11.70;99.90;;;;;;5014686;28;20229;-81
2021/03/04 03:27:45;;;;;;;42.65;37.30;;;11.70;99.90;;;;;;4996814;28;20174;-82
2021/03/04 03:30:19;;;;;;;43.95;36.10;;;11.70;99.90;;;;;;4996342;28;20194;-81
2021/03/04 03:32:50;;;;;;;47.78;36.55;;;11.70;99.90;;;;;;4980731;28;20166;-81
2021/03/04 03:35:17;;;;;;;44.35;35.92;;;11.70;99.90;;;;;;4980434;28;20282;-81
2021/03/04 03:37:44;;;;;;;43.10;36.20;;;11.70;99.90;;;;;;5014175;28;20174;-80
2021/03/04 03:40:12;;;;;;;43.35;34.97;;;11.70;99.90;;;;;;5016927;28;20178;-81
2021/03/04 03:42:40;;;;;;;46.05;35.92;;;11.70;99.90;;;;;;5014351;28;20567;-81
2021/03/04 03:45:13;;;;;;;45.97;34.35;;;11.60;99.90;;;;;;5013631;28;20225;-81
2021/03/04 03:47:43;;;;;;;41.05;34.35;;;11.50;99.90;;;;;;5013921;28;20196;-81
2021/03/04 03:50:12;;;;;;;48.25;37.17;;;11.50;99.90;;;;;;5028397;28;20194;-81
2021/03/04 03:52:38;;;;;;;45.65;35.70;;;11.50;99.90;;;;;;5008561;28;20253;-80
2021/03/04 03:55:05;;;;;;;49.10;37.58;;;11.40;99.90;;;;;;4988033;28;20196;-80
2021/03/04 03:57:33;;;;;;;46.85;35.65;;;11.40;99.90;;;;;;5013423;28;20244;-81
2021/03/04 04:00:01;;;;;;;47.05;37.22;;;11.30;99.90;;;;;;5013033;28;20178;-81
2021/03/04 04:02:28;;;;;;;45.38;34.92;;;11.20;99.90;;;;;;5012603;28;20582;-81
2021/03/04 04:04:55;;;;;;;47.72;36.53;;;11.20;99.90;;;;;;5012425;28;20200;-80
2021/03/04 04:07:21;;;;;;;44.92;37.80;;;11.20;99.90;;;;;;5012525;28;20169;-80
2021/03/04 04:09:48;;;;;;;46.88;36.20;;;11.10;99.90;;;;;;5013249;28;20190;-80
2021/03/04 04:12:14;;;;;;;44.58;36.80;;;11.10;99.90;;;;;;5012572;28;20171;-81
2021/03/04 04:14:45;;;;;;;50.03;36.88;;;11.00;99.90;;;;;;5013641;28;20666;-81
2021/03/04 04:17:11;;;;;;;48.47;38.63;;;11.00;99.90;;;;;;5017878;28;20166;-81
2021/03/04 04:19:37;;;;;;;50.42;38.78;;;11.00;99.90;;;;;;5028590;28;20273;-82
2021/03/04 04:22:04;;;;;;;49.95;37.67;;;11.00;99.90;;;;;;5013614;28;20177;-80
2021/03/04 04:24:31;;;;;;;46.38;37.55;;;11.00;99.90;;;;;;5013314;28;20562;-81
2021/03/04 04:26:57;;;;;;;51.70;38.47;;;11.00;99.90;;;;;;5013442;28;20174;-80
2021/03/04 04:29:23;;;;;;;42.60;33.20;;;11.10;99.90;;;;;;5012879;28;20166;-80
2021/03/04 04:31:48;;;;;;;50.23;36.87;;;11.10;99.90;;;;;;5012063;28;20601;-80
2021/03/04 04:34:14;;;;;;;44.00;36.30;;;11.10;99.90;;;;;;5013425;28;20647;-80
2021/03/04 04:36:39;;;;;;;45.27;37.47;;;11.20;99.90;;;;;;5028291;28;20674;-80
2021/03/04 04:39:06;;;;;;;46.97;37.93;;;11.20;99.90;;;;;;5011585;28;20581;-81
2021/03/04 04:41:31;;;;;;;47.05;36.30;;;11.20;99.90;;;;;;5012336;28;20177;-80
2021/03/04 04:43:57;;;;;;;46.70;37.27;;;11.30;99.90;;;;;;5013150;28;20253;-80
2021/03/04 04:46:23;;;;;;;48.40;37.30;;;11.30;99.90;;;;;;5012772;28;20614;-80
2021/03/04 04:48:48;;;;;;;50.50;37.60;;;11.30;99.90;;;;;;5011485;28;20170;-82
2021/03/04 04:51:14;;;;;;;45.60;36.40;;;11.40;99.90;;;;;;5012959;28;20252;-80
2021/03/04 04:53:41;;;;;;;43.70;37.20;;;11.40;99.90;;;;;;5016163;28;20167;-82
2021/03/04 04:56:07;;;;;;;46.60;36.65;;;11.50;99.90;;;;;;5012950;28;20201;-81
2021/03/04 04:58:33;;;;;;;46.72;35.72;;;11.50;99.90;;;;;;5012536;28;20174;-81
2021/03/04 05:00:59;;;;;;;41.83;33.38;;;11.60;99.90;;;;;;5012671;28;20261;-81
2021/03/04 05:03:25;;;;;;;37.13;29.67;;;11.60;99.90;;;;;;5028031;28;20269;-81
2021/03/04 05:05:51;;;;;;;33.73;27.87;;;11.70;99.90;;;;;;5012635;28;21306;-81
2021/03/04 05:08:16;;;;;;;32.73;27.70;;;11.70;99.90;;;;;;5027434;28;20224;-81
2021/03/04 05:10:42;;;;;;;37.07;28.87;;;11.70;99.90;;;;;;5012716;28;20206;-82
2021/03/04 05:13:08;;;;;;;32.43;25.40;;;11.80;99.90;;;;;;5027652;28;20576;-82
2021/03/04 05:15:34;;;;;;;41.17;28.23;;;11.80;99.90;;;;;;5012520;28;20205;-82
2021/03/04 05:18:00;;;;;;;34.30;26.77;;;11.80;99.90;;;;;;5012040;28;20158;-82
2021/03/04 05:20:26;;;;;;;34.60;28.77;;;11.90;99.90;;;;;;5012397;28;20615;-82
2021/03/04 05:22:52;;;;;;;31.27;25.57;;;11.90;99.90;;;;;;5012429;28;20209;-81
2021/03/04 05:25:18;;;;;;;34.47;26.80;;;11.90;99.90;;;;;;4994872;28;20556;-82
2021/03/04 05:27:44;;;;;;;36.33;25.02;;;11.90;99.90;;;;;;5027574;28;20565;-81
2021/03/04 05:30:10;;;;;;;31.47;25.50;;;11.90;99.90;;;;;;5017117;28;20260;-81
2021/03/04 05:32:36;;;;;;;39.05;28.40;;;11.90;99.90;;;;;;5012441;28;20158;-81
2021/03/04 05:35:04;;;;;;;36.17;25.65;;;11.80;99.90;;;;;;5010951;28;20233;-82
2021/03/04 05:37:29;;;;;;;33.53;26.30;;;11.80;99.90;;;;;;5010652;28;20705;-82
2021/03/04 05:39:55;;;;;;;39.50;27.80;;;11.80;99.90;;;;;;5012300;28;20167;-80
2021/03/04 05:42:21;;;;;;;32.37;26.50;;;11.80;99.90;;;;;;5029201;28;20171;-82
2021/03/04 05:44:48;;;;;;;35.08;26.60;;;11.80;99.90;;;;;;5011900;28;20198;-80
2021/03/04 05:47:14;;;;;;;33.58;26.55;;;11.80;99.90;;;;;;5010843;28;20642;-82
2021/03/04 05:50:05;;;;;;;32.07;24.07;;;11.80;99.90;;;;;;5011833;28;20254;-83
2021/03/04 05:52:37;;;;;;;30.65;23.90;;;11.80;99.90;;;;;;5011488;28;21059;-83
2021/03/04 05:55:05;;;;;;;42.22;27.48;;;11.70;99.90;;;;;;5012000;28;20269;-82
2021/03/04 05:57:31;;;;;;;35.22;27.83;;;11.70;99.90;;;;;;4996020;28;20270;-82
2021/03/04 05:59:57;;;;;;;40.15;28.95;;;11.60;99.90;;;;;;5013783;28;20212;-81
2021/03/04 06:02:24;;;;;;;29.60;25.13;;;11.40;99.90;;;;;;5010712;28;20569;-82
2021/03/04 06:04:50;;;;;;;39.90;30.38;;;11.20;99.90;;;;;;5011944;28;20237;-82
2021/03/04 06:07:16;;;;;;;36.33;28.30;;;11.10;99.90;;;;;;5016026;28;20201;-81
2021/03/04 06:09:42;;;;;;;35.42;26.42;;;10.90;99.90;;;;;;5013440;28;20174;-81
2021/03/04 06:12:08;;;;;;;32.20;26.27;;;10.70;99.90;;;;;;5014651;28;20657;-80
2021/03/04 06:14:35;;;;;;;35.85;25.77;;;10.60;99.90;;;;;;5028705;28;20596;-80
2021/03/04 06:17:15;;;;;;;34.53;26.92;;;10.50;99.90;;;;;;5014427;28;20178;-81
2021/03/04 06:19:50;;;;;;;32.58;24.55;;;10.50;99.90;;;;;;5028359;28;20194;-80
2021/03/04 06:22:33;;;;;;;36.15;26.77;;;10.50;99.90;;;;;;5011822;28;20264;-80
2021/03/04 06:25:05;;;;;;;37.35;29.40;;;10.50;99.90;;;;;;4994166;28;20281;-81
2021/03/04 06:27:33;;;;;;;43.60;29.85;;;10.50;99.90;;;;;;5010599;28;20170;-81
2021/03/04 06:30:01;;;;;;;38.90;29.92;;;10.50;99.90;;;;;;5019386;28;20230;-82
2021/03/04 06:32:27;;;;;;;36.75;30.10;;;10.50;99.90;;;;;;5023218;28;20222;-80
2021/03/04 06:35:19;;;;;;;41.35;32.45;;;10.50;99.90;;;;;;5032036;28;20182;-81
2021/03/04 06:37:45;;;;;;;39.20;29.42;;;10.50;99.90;;;;;;5028567;28;20200;-82
2021/03/04 06:40:21;;;;;;;41.38;28.73;;;10.50;99.90;;;;;;5018864;28;20182;-83
2021/03/04 06:42:48;;;;;;;39.17;30.25;;;10.60;99.90;;;;;;5012418;28;20221;-84
2021/03/04 06:45:33;;;;;;;39.58;29.85;;;10.50;99.90;;;;;;5013755;28;20284;-83
2021/03/04 06:48:06;;;;;;;35.78;27.70;;;10.60;99.90;;;;;;5010721;28;20179;-84
2021/03/04 06:50:32;;;;;;;40.22;29.65;;;10.60;99.90;;;;;;5031568;28;20218;-85
2021/03/04 06:52:58;;;;;;;38.17;28.90;;;10.60;99.90;;;;;;5017268;28;20366;-84
2021/03/04 06:55:25;;;;;;;39.87;29.03;;;10.60;99.90;;;;;;4995302;28;20673;-84
2021/03/04 06:57:59;;;;;;;33.25;28.42;;;10.60;99.90;;;;;;5012335;28;20585;-85
2021/03/04 07:00:26;;;;;;;39.20;29.45;;;10.60;99.90;;;;;;4993445;28;20179;-85
2021/03/04 07:02:58;;;;;;;45.85;30.70;;;10.60;99.90;;;;;;4994772;28;20175;-84
2021/03/04 07:05:27;;;;;;;56.40;47.25;;;10.60;99.90;;;;;;4993256;28;20719;-85
2021/03/04 07:07:57;;;;;;;44.40;38.38;;;10.50;99.90;;;;;;5031938;28;20175;-86
2021/03/04 07:10:25;;;;;;;40.33;32.53;;;10.50;99.90;;;;;;5002267;28;20250;-87
2021/03/04 07:12:51;;;;;;;43.30;36.15;;;10.60;99.90;;;;;;5000571;28;20175;-87
2021/03/04 07:15:19;;;;;;;40.20;35.40;;;10.60;99.90;;;;;;5029099;28;20194;-86
2021/03/04 07:17:50;;;;;;;43.22;34.25;;;10.60;99.90;;;;;;4996908;28;20171;-85
2021/03/04 07:20:19;;;;;;;40.65;33.03;;;10.50;99.90;;;;;;4999501;28;20254;-85
2021/03/04 07:22:48;;;;;;;43.88;38.42;;;10.50;99.90;;;;;;5015022;28;20170;-85
2021/03/04 07:25:17;;;;;;;44.35;36.13;;;10.50;99.90;;;;;;5013738;28;20589;-84
2021/03/04 07:27:43;;;;;;;36.15;32.30;;;10.40;99.90;;;;;;5013378;28;20187;-84
2021/03/04 07:30:11;;;;;;;43.57;37.07;;;10.40;99.90;;;;;;5013191;28;20691;-84
2021/03/04 07:32:38;;;;;;;40.58;35.45;;;10.40;99.90;;;;;;5013722;28;20569;-84
2021/03/04 07:35:10;;;;;;;39.60;34.53;;;10.40;99.90;;;;;;5013513;28;20183;-83
2021/03/04 07:37:39;;;;;;;47.58;37.28;;;10.40;99.90;;;;;;5012902;28;20178;-85
2021/03/04 07:40:05;;;;;;;41.80;32.05;;;10.40;99.90;;;;;;5012771;28;20178;-85
2021/03/04 07:42:31;;;;;;;47.03;37.08;;;10.40;99.90;;;;;;5014446;28;20272;-85
2021/03/04 07:45:13;;;;;;;37.17;32.22;;;10.40;99.90;;;;;;4996355;28;20214;-84
2021/03/04 07:47:40;;;;;;;38.63;33.08;;;10.40;99.90;;;;;;5013021;28;20527;-82
2021/03/04 07:50:20;;;;;;;44.75;35.00;;;10.40;99.90;;;;;;5013870;28;20631;-82
2021/03/04 07:52:46;;;;;;;51.40;39.17;;;10.40;99.90;;;;;;5013964;28;20246;-83
2021/03/04 07:55:16;;;;;;;47.45;37.45;;;10.40;99.90;;;;;;5012872;28;20310;-81
2021/03/04 07:57:48;;;;;;;43.78;33.08;;;10.40;99.90;;;;;;5019390;28;20170;-82
2021/03/04 08:00:17;;;;;;;73.63;49.50;;;10.50;99.90;;;;;;5013866;28;20206;-83
2021/03/04 08:02:44;;;;;;;68.30;45.65;;;10.50;99.90;;;;;;5014413;28;20182;-83
2021/03/04 08:05:15;;;;;;;63.80;47.47;;;10.50;99.90;;;;;;5014447;28;20201;-83
2021/03/04 08:07:49;;;;;;;59.38;41.50;;;10.50;99.90;;;;;;4994307;28;20181;-83
2021/03/04 08:10:19;;;;;;;55.22;37.13;;;10.50;99.90;;;;;;5025138;28;20262;-84
2021/03/04 08:12:52;;;;;;;42.83;33.05;;;10.50;99.90;;;;;;5002545;28;20224;-83
2021/03/04 08:15:21;;;;;;;40.22;32.30;;;10.60;99.90;;;;;;5013840;28;20194;-83
2021/03/04 08:17:47;;;;;;;45.45;32.80;;;10.60;99.90;;;;;;5029179;28;20174;-81
2021/03/04 08:20:17;;;;;;;40.92;32.20;;;10.60;99.90;;;;;;5013136;28;20162;-81
2021/03/04 08:22:55;;;;;;;44.03;30.25;;;10.60;99.90;;;;;;5011890;28;20373;-81
2021/03/04 08:25:31;;;;;;;37.35;30.50;;;10.70;99.90;;;;;;5012559;28;20190;-82
2021/03/04 08:27:59;;;;;;;31.73;26.25;;;10.70;99.90;;;;;;5011744;28;20253;-81
2021/03/04 08:30:39;;;;;;;34.92;28.80;;;10.80;99.90;;;;;;4996000;28;20216;-81
2021/03/04 08:33:10;;;;;;;37.78;31.75;;;10.80;99.90;;;;;;5013645;28;20166;-82
2021/03/04 08:35:46;;;;;;;37.63;31.60;;;10.80;99.90;;;;;;5017238;28;20193;-81
2021/03/04 08:38:15;;;;;;;34.20;28.35;;;10.90;99.90;;;;;;5013102;28;20174;-81
2021/03/04 08:40:41;;;;;;;44.83;34.65;;;10.90;99.90;;;;;;5013151;28;20221;-82
2021/03/04 08:43:09;;;;;;;42.20;34.47;;;11.00;99.90;;;;;;4995878;28;20174;-82
2021/03/04 08:45:35;;;;;;;46.08;34.63;;;11.10;99.90;;;;;;4995758;28;20198;-81
2021/03/04 08:48:06;;;;;;;46.67;36.03;;;11.20;99.90;;;;;;5012529;28;20245;-82
2021/03/04 08:50:37;;;;;;;43.80;35.53;;;11.40;99.90;;;;;;5011477;28;20202;-81
2021/03/04 08:53:09;;;;;;;45.28;35.70;;;11.50;99.90;;;;;;5028384;28;20198;-83
2021/03/04 08:55:42;;;;;;;43.00;35.72;;;11.60;99.90;;;;;;5012820;28;20194;-82
2021/03/04 08:58:09;;;;;;;43.08;35.63;;;11.80;99.90;;;;;;5012540;28;20166;-83
2021/03/04 09:00:34;;;;;;;46.10;36.10;;;11.90;99.90;;;;;;5027999;28;20166;-82
2021/03/04 09:03:11;;;;;;;37.33;31.20;;;12.00;99.90;;;;;;5012766;28;20576;-82
2021/03/04 09:05:38;;;;;;;42.47;35.38;;;12.10;99.90;;;;;;5011829;28;20961;-82
2021/03/04 09:08:12;;;;;;;38.70;32.47;;;12.20;99.90;;;;;;5020530;28;20173;-85
2021/03/04 09:10:49;;;;;;;35.17;31.25;;;12.20;99.90;;;;;;5036851;28;20201;-84
2021/03/04 09:13:24;;;;;;;34.60;30.70;;;12.30;99.90;;;;;;5016108;28;20536;-82
2021/03/04 09:16:04;;;;;;;38.58;33.00;;;12.30;99.90;;;;;;5017824;28;20552;-85
2021/03/04 09:18:45;;;;;;;28.88;25.30;;;12.30;99.90;;;;;;5022267;28;20166;-83
2021/03/04 09:21:12;;;;;;;30.70;25.35;;;12.30;99.90;;;;;;5025492;28;20174;-83
2021/03/04 09:23:38;;;;;;;28.83;24.90;;;12.30;99.90;;;;;;5022629;28;20158;-82
2021/03/04 09:26:04;;;;;;;28.00;24.50;;;12.30;99.90;;;;;;5016879;28;20277;-83
2021/03/04 09:28:39;;;;;;;27.00;23.90;;;12.30;99.90;;;;;;4985947;28;20201;-83
2021/03/04 09:31:13;;;;;;;30.38;23.80;;;12.30;99.90;;;;;;5002902;28;20205;-84
2021/03/04 09:33:40;;;;;;;23.65;20.98;;;12.30;99.90;;;;;;5014231;28;20257;-84
2021/03/04 09:36:06;;;;;;;30.40;25.48;;;12.40;99.90;;;;;;5012166;28;20190;-83
2021/03/04 09:38:36;;;;;;;26.02;23.30;;;12.40;99.90;;;;;;5012299;28;20163;-84
2021/03/04 09:41:16;;;;;;;25.63;22.88;;;12.40;99.90;;;;;;5015362;28;20174;-82
2021/03/04 09:43:47;;;;;;;25.30;22.65;;;12.50;99.90;;;;;;5013431;28;20252;-83
2021/03/04 09:46:25;;;;;;;25.73;23.05;;;12.50;99.90;;;;;;5015963;28;20225;-85
2021/03/04 09:48:51;;;;;;;26.52;22.33;;;12.60;99.90;;;;;;5017407;28;20189;-77
2021/03/04 09:51:17;;;;;;;26.45;22.17;;;12.70;99.90;;;;;;5011963;28;20194;-77
2021/03/04 09:53:47;;;;;;;22.30;19.90;;;12.70;99.90;;;;;;5058449;22;20276;-76
2021/03/04 09:56:22;;;;;;;20.58;18.45;;;12.70;99.90;;;;;;5056482;28;20633;-76
2021/03/04 09:59:28;;;;;;;20.98;18.77;;;12.80;99.90;;;;;;5079921;28;20251;-78
2021/03/04 10:01:55;;;;;;;19.27;17.27;;;12.90;99.90;;;;;;5055875;28;20230;-76
2021/03/04 10:04:26;;;;;;;21.73;18.08;;;13.00;99.90;;;;;;5062864;28;20185;-75
2021/03/04 10:06:52;;;;;;;20.98;18.15;;;13.20;99.90;;;;;;5046671;28;20227;-75
2021/03/04 10:09:25;;;;;;;23.15;20.35;;;13.30;99.90;;;;;;5062457;28;20168;-75
2021/03/04 10:11:51;;;;;;;22.25;19.08;;;13.40;99.90;;;;;;5056928;28;20213;-76
2021/03/04 10:14:17;;;;;;;20.55;18.35;;;13.50;99.90;;;;;;5070030;28;20192;-75
2021/03/04 10:16:55;;;;;;;26.53;20.50;;;13.50;99.90;;;;;;5054730;28;20172;-76
2021/03/04 10:19:21;;;;;;;22.42;20.02;;;13.50;99.90;;;;;;5032667;28;20651;-76
2021/03/04 10:21:47;;;;;;;21.15;18.77;;;13.50;99.90;;;;;;5032850;28;20548;-76
2021/03/04 10:24:13;;;;;;;24.63;20.92;;;13.50;99.90;;;;;;5032168;28;20192;-76
2021/03/04 10:26:40;;;;;;;35.10;30.17;;;13.40;99.90;;;;;;5050692;28;20169;-76
2021/03/04 10:29:06;;;;;;;29.23;24.80;;;13.40;99.90;;;;;;5032487;28;20200;-75
2021/03/04 10:31:32;;;;;;;26.52;23.55;;;13.40;99.90;;;;;;5050514;28;20201;-74
2021/03/04 10:33:58;;;;;;;23.97;19.83;;;13.30;99.90;;;;;;5050659;28;20181;-75
2021/03/04 10:36:24;;;;;;;22.55;19.27;;;13.20;99.90;;;;;;5033097;28;20586;-75
2021/03/04 10:38:50;;;;;;;22.75;20.10;;;13.20;99.90;;;;;;5056678;28;20173;-77
2021/03/04 10:41:16;;;;;;;25.97;22.83;;;13.10;99.90;;;;;;5054820;28;20787;-77
2021/03/04 10:43:42;;;;;;;18.65;16.48;;;13.10;99.90;;;;;;5037421;28;20599;-77
2021/03/04 10:46:09;;;;;;;20.00;17.67;;;13.10;99.90;;;;;;5056589;28;20268;-78
2021/03/04 10:48:35;;;;;;;20.00;16.13;;;13.10;99.90;;;;;;5040723;28;20211;-79
2021/03/04 10:51:01;;;;;;;17.90;16.07;;;13.10;99.90;;;;;;5037699;28;20240;-79
2021/03/04 10:53:27;;;;;;;19.23;15.83;;;13.00;99.90;;;;;;5037145;28;20204;-79
2021/03/04 10:55:52;;;;;;;17.87;14.47;;;12.90;99.90;;;;;;5037203;28;20932;-78
2021/03/04 10:58:18;;;;;;;18.87;16.83;;;12.80;99.90;;;;;;5036586;28;20576;-78
2021/03/04 11:00:44;;;;;;;16.10;14.20;;;12.70;99.90;;;;;;5036708;28;20180;-78
2021/03/04 11:03:10;;;;;;;17.23;15.40;;;12.70;99.90;;;;;;5054283;28;20224;-75
2021/03/04 11:05:35;;;;;;;19.30;15.13;;;12.60;99.90;;;;;;5054462;28;20985;-76
2021/03/04 11:08:01;;;;;;;21.83;16.67;;;12.50;99.90;;;;;;5053514;28;20177;-76
2021/03/04 11:10:27;;;;;;;18.03;14.20;;;12.50;99.90;;;;;;5054012;28;20603;-76
2021/03/04 11:12:55;;;;;;;22.77;18.30;;;12.50;99.90;;;;;;5053908;28;20174;-76
2021/03/04 11:15:21;;;;;;;18.25;14.52;;;12.40;99.90;;;;;;5036437;28;20567;-76
2021/03/04 11:17:47;;;;;;;23.58;18.05;;;12.30;99.90;;;;;;5069644;28;20632;-76
2021/03/04 11:20:12;;;;;;;23.60;18.40;;;12.30;99.90;;;;;;5055514;28;20180;-75
2021/03/04 11:22:38;;;;;;;20.70;16.93;;;12.20;99.90;;;;;;5055947;28;20632;-75
2021/03/04 11:25:05;;;;;;;22.20;17.30;;;12.20;99.90;;;;;;5073530;28;20204;-76
2021/03/04 11:27:31;;;;;;;23.23;18.80;;;12.20;99.90;;;;;;5073090;28;20164;-75
2021/03/04 11:29:56;;;;;;;22.23;16.90;;;12.20;99.90;;;;;;5055152;28;20168;-75
2021/03/04 11:32:22;;;;;;;24.60;18.80;;;12.20;99.90;;;;;;5041295;28;20179;-75
2021/03/04 11:34:48;;;;;;;28.40;21.27;;;12.20;99.90;;;;;;5039911;28;20185;-74
2021/03/04 11:37:14;;;;;;;24.50;20.07;;;12.20;99.90;;;;;;5073169;28;20180;-74
2021/03/04 11:39:39;;;;;;;29.87;21.10;;;12.20;99.90;;;;;;5073427;28;20636;-74
2021/03/04 11:42:05;;;;;;;28.40;23.70;;;12.20;99.90;;;;;;5038881;28;20674;-74
2021/03/04 11:44:32;;;;;;;31.52;25.10;;;12.20;99.90;;;;;;5073275;28;20323;-75
2021/03/04 11:46:57;;;;;;;30.88;23.27;;;12.20;99.90;;;;;;5038167;28;20176;-75
2021/03/04 11:49:23;;;;;;;34.50;26.23;;;12.20;99.90;;;;;;5072947;28;20588;-75
2021/03/04 11:51:49;;;;;;;48.93;33.60;;;12.20;99.90;;;;;;5072973;28;21156;-75
2021/03/04 11:54:15;;;;;;;46.70;33.07;;;12.20;99.90;;;;;;5072873;28;20257;-75
2021/03/04 11:56:40;;;;;;;58.83;40.47;;;12.10;99.90;;;;;;5072977;28;20171;-75
2021/03/04 11:59:06;;;;;;;55.93;41.50;;;12.10;99.90;;;;;;5072327;28;20589;-75
2021/03/04 12:01:33;;;;;;;72.10;47.40;;;12.00;99.90;;;;;;5073090;28;20647;-75
2021/03/04 12:03:59;;;;;;;68.20;46.80;;;12.00;99.90;;;;;;5073038;28;20715;-75
2021/03/04 12:06:25;;;;;;;64.00;43.57;;;12.00;99.90;;;;;;5038880;28;20180;-76
2021/03/04 12:08:51;;;;;;;53.37;38.33;;;12.00;99.90;;;;;;5043487;28;20217;-76
2021/03/04 12:11:17;;;;;;;58.60;42.10;;;11.90;99.90;;;;;;5034003;28;20221;-76
2021/03/04 12:13:43;;;;;;;63.57;43.67;;;11.90;99.90;;;;;;5052944;28;20243;-76
2021/03/04 12:16:09;;;;;;;63.13;43.20;;;11.90;99.90;;;;;;5035364;28;20652;-75
2021/03/04 12:18:36;;;;;;;56.60;39.90;;;11.80;99.90;;;;;;5034451;28;20234;-75
2021/03/04 12:21:02;;;;;;;50.85;37.83;;;11.70;99.90;;;;;;5034699;28;20568;-76
2021/03/04 12:23:34;;;;;;;42.05;33.88;;;11.70;99.90;;;;;;5034481;28;20204;-76
2021/03/04 12:26:00;;;;;;;38.72;29.83;;;11.60;99.90;;;;;;5016891;28;20930;-76
2021/03/04 12:28:27;;;;;;;32.65;27.17;;;11.60;99.90;;;;;;5016824;28;20180;-76
2021/03/04 12:30:53;;;;;;;31.83;26.60;;;11.50;99.90;;;;;;5051214;28;20200;-76
2021/03/04 12:33:18;;;;;;;34.45;26.45;;;11.40;99.90;;;;;;5033670;28;20204;-76